createdAt,value
2022-12-06T00:01:20.143Z,14.55
2022-12-06T00:03:52.793Z,13.50
2022-12-06T00:06:22.187Z,12.55
2022-12-06T00:08:51.481Z,12.70
2022-12-06T00:11:21.427Z,12.48
2022-12-06T00:13:53.467Z,11.82
2022-12-06T00:16:24.530Z,13.23
2022-12-06T00:18:53.516Z,12.30
2022-12-06T00:21:24.031Z,11.85
2022-12-06T00:23:54.002Z,11.52
2022-12-06T00:26:22.859Z,11.68
2022-12-06T00:28:55.081Z,11.32
2022-12-06T00:31:26.905Z,11.73
2022-12-06T00:33:55.567Z,12.32
2022-12-06T00:36:26.488Z,11.98
2022-12-06T00:38:54.503Z,10.73
2022-12-06T00:41:24.403Z,11.65
2022-12-06T00:43:53.001Z,12.25
2022-12-06T00:46:23.413Z,10.82
2022-12-06T00:48:53.798Z,10.13
2022-12-06T00:51:24.539Z,10.57
2022-12-06T00:53:53.116Z,11.90
2022-12-06T00:56:21.117Z,12.18
2022-12-06T00:58:49.843Z,11.07
2022-12-06T01:01:20.524Z,11.07
2022-12-06T01:03:51.505Z,10.40
2022-12-06T01:06:26.435Z,11.30
2022-12-06T01:08:55.169Z,12.07
2022-12-06T01:11:24.309Z,11.85
2022-12-06T01:13:52.746Z,11.15
2022-12-06T01:16:22.896Z,11.35
2022-12-06T01:18:54.581Z,11.27
2022-12-06T01:21:25.321Z,11.77
2022-12-06T01:23:54.902Z,11.60
2022-12-06T01:26:25.046Z,11.65
2022-12-06T01:28:53.728Z,12.15
2022-12-06T01:31:21.902Z,11.80
2022-12-06T01:33:50.273Z,11.50
2022-12-06T01:36:19.535Z,11.23
2022-12-06T01:38:52.791Z,12.02
2022-12-06T01:41:22.132Z,11.48
2022-12-06T01:43:50.836Z,11.45
2022-12-06T01:46:30.103Z,11.80
2022-12-06T01:49:09.463Z,10.73
2022-12-06T01:51:38.348Z,10.95
2022-12-06T01:54:11.764Z,11.50
2022-12-06T01:56:41.828Z,11.02
2022-12-06T01:59:11.179Z,11.88
2022-12-06T02:01:40.947Z,10.95
2022-12-06T02:04:10.359Z,12.23
2022-12-06T02:06:40.221Z,10.60
2022-12-06T02:09:11.910Z,11.05
2022-12-06T02:11:39.763Z,10.40
2022-12-06T02:14:12.733Z,10.82
2022-12-06T02:16:52.972Z,10.48
2022-12-06T02:19:44.782Z,10.75
2022-12-06T02:22:19.172Z,10.88
2022-12-06T02:25:12.369Z,10.03
2022-12-06T02:28:00.617Z,10.55
2022-12-06T02:30:40.922Z,9.90
2022-12-06T02:33:12.145Z,11.18
2022-12-06T02:35:45.146Z,10.38
2022-12-06T02:38:17.672Z,10.20
2022-12-06T02:40:51.490Z,9.65
2022-12-06T02:43:24.749Z,10.10
2022-12-06T02:45:58.591Z,10.55
2022-12-06T02:48:27.705Z,9.50
2022-12-06T02:51:01.595Z,9.57
2022-12-06T02:53:32.178Z,10.48
2022-12-06T02:56:01.062Z,10.05
2022-12-06T02:58:28.958Z,10.63
2022-12-06T03:01:01.477Z,9.45
2022-12-06T03:03:51.493Z,10.90
2022-12-06T03:06:49.504Z,9.57
2022-12-06T03:09:33.742Z,9.07
2022-12-06T03:12:09.262Z,10.10
2022-12-06T03:14:46.707Z,10.10
2022-12-06T03:17:22.275Z,10.25
2022-12-06T03:19:57.204Z,9.55
2022-12-06T03:22:35.596Z,10.23
2022-12-06T03:25:07.878Z,10.55
2022-12-06T03:27:37.358Z,11.10
2022-12-06T03:30:08.853Z,10.38
2022-12-06T03:32:42.675Z,9.40
2022-12-06T03:35:14.702Z,11.88
2022-12-06T03:37:48.678Z,11.13
2022-12-06T03:40:20.906Z,10.45
2022-12-06T03:42:51.132Z,10.90
2022-12-06T03:45:20.166Z,11.85
2022-12-06T03:47:55.518Z,12.07
2022-12-06T03:52:54.267Z,11.77
2022-12-06T03:55:22.808Z,11.55
2022-12-06T03:57:50.642Z,11.88
2022-12-06T04:00:19.605Z,11.70
2022-12-06T04:02:47.521Z,12.05
2022-12-06T04:05:16.893Z,11.48
2022-12-06T04:07:45.310Z,12.00
2022-12-06T04:10:13.367Z,11.75
2022-12-06T04:12:59.140Z,11.18
2022-12-06T04:18:18.053Z,11.93
2022-12-06T04:21:07.127Z,11.27
2022-12-06T04:23:38.110Z,11.57
2022-12-06T04:26:07.867Z,11.75
2022-12-06T04:28:53.986Z,12.43
2022-12-06T04:31:39.789Z,10.90
2022-12-06T04:34:25.823Z,11.07
2022-12-06T04:37:12.555Z,11.57
2022-12-06T04:39:40.766Z,11.00
2022-12-06T04:42:26.403Z,9.82
2022-12-06T04:44:54.778Z,10.35
2022-12-06T04:47:22.878Z,9.95
2022-12-06T04:49:51.442Z,10.90
2022-12-06T04:52:20.830Z,10.30
2022-12-06T04:54:48.698Z,10.45
2022-12-06T04:57:18.656Z,10.57
2022-12-06T04:59:49.351Z,9.60
2022-12-06T05:02:17.914Z,10.35
2022-12-06T05:04:45.680Z,11.07
2022-12-06T05:07:14.018Z,9.68
2022-12-06T05:09:43.187Z,10.68
2022-12-06T05:12:11.464Z,10.50
2022-12-06T05:14:39.373Z,10.45
2022-12-06T05:17:07.212Z,10.85
2022-12-06T05:19:35.448Z,10.25
2022-12-06T05:22:03.329Z,10.13
2022-12-06T05:24:31.945Z,8.98
2022-12-06T05:27:01.123Z,9.82
2022-12-06T05:29:29.634Z,10.65
2022-12-06T05:31:57.585Z,10.90
2022-12-06T05:34:26.298Z,10.20
2022-12-06T05:36:54.190Z,9.95
2022-12-06T05:39:22.498Z,10.27
2022-12-06T05:41:50.748Z,10.02
2022-12-06T05:44:20.171Z,11.05
2022-12-06T05:46:48.000Z,9.80
2022-12-06T05:49:16.364Z,10.98
2022-12-06T05:51:44.396Z,10.38
2022-12-06T05:54:12.692Z,10.65
2022-12-06T05:56:41.002Z,11.18
2022-12-06T05:59:09.237Z,11.50
2022-12-06T06:01:38.475Z,9.90
2022-12-06T06:04:06.895Z,10.85
2022-12-06T06:06:34.843Z,11.38
2022-12-06T06:09:03.204Z,9.80
2022-12-06T06:11:30.963Z,10.95
2022-12-06T06:13:59.236Z,11.45
2022-12-06T06:16:27.301Z,10.32
2022-12-06T06:18:57.081Z,10.82
2022-12-06T06:21:26.079Z,9.77
2022-12-06T06:23:54.411Z,11.20
2022-12-06T06:26:22.227Z,10.20
2022-12-06T06:28:50.406Z,11.20
2022-12-06T06:31:18.337Z,10.35
2022-12-06T06:33:46.280Z,10.07
2022-12-06T06:36:15.570Z,9.88
2022-12-06T06:38:43.341Z,10.68
2022-12-06T06:41:13.041Z,10.70
2022-12-06T06:43:40.863Z,10.52
2022-12-06T06:46:09.658Z,10.68
2022-12-06T06:48:40.055Z,11.05
2022-12-06T06:51:09.984Z,10.18
2022-12-06T06:53:40.623Z,10.63
2022-12-06T06:56:08.992Z,10.48
2022-12-06T06:58:37.270Z,10.07
2022-12-06T07:01:07.457Z,10.68
2022-12-06T07:03:36.344Z,9.50
2022-12-06T07:06:09.784Z,9.32
2022-12-06T07:08:39.697Z,10.80
2022-12-06T07:11:07.541Z,10.90
2022-12-06T07:13:37.210Z,10.07
2022-12-06T07:16:06.566Z,10.30
2022-12-06T07:18:34.901Z,11.10
2022-12-06T07:21:04.919Z,10.07
2022-12-06T07:23:33.567Z,9.63
2022-12-06T07:26:04.727Z,10.18
2022-12-06T07:28:33.701Z,9.57
2022-12-06T07:31:09.484Z,10.35
2022-12-06T07:33:37.911Z,9.75
2022-12-06T07:36:14.190Z,10.43
2022-12-06T07:38:43.586Z,10.25
2022-12-06T07:41:33.111Z,10.60
2022-12-06T07:44:19.761Z,11.45
2022-12-06T07:46:49.178Z,10.48
2022-12-06T07:49:18.088Z,11.70
2022-12-06T07:51:46.833Z,12.15
2022-12-06T07:54:15.633Z,13.85
2022-12-06T07:56:45.330Z,13.35
2022-12-06T07:59:13.601Z,15.40
2022-12-06T08:01:41.944Z,16.02
2022-12-06T08:04:09.906Z,15.48
2022-12-06T08:06:38.210Z,13.00
2022-12-06T08:09:06.792Z,15.60
2022-12-06T08:11:35.522Z,13.77
2022-12-06T08:14:05.340Z,13.05
2022-12-06T08:16:33.151Z,19.13
2022-12-06T08:19:02.792Z,20.48
2022-12-06T08:21:30.787Z,19.73
2022-12-06T08:23:58.621Z,14.70
2022-12-06T08:26:26.609Z,13.07
2022-12-06T08:28:54.574Z,11.07
2022-12-06T08:31:25.143Z,11.57
2022-12-06T08:33:53.294Z,11.60
2022-12-06T08:36:23.011Z,11.65
2022-12-06T08:38:51.984Z,12.00
2022-12-06T08:41:38.114Z,11.30
2022-12-06T08:44:06.284Z,10.98
2022-12-06T08:46:36.217Z,11.18
2022-12-06T08:49:04.347Z,9.98
2022-12-06T08:51:34.613Z,11.00
2022-12-06T08:54:03.116Z,10.68
2022-12-06T08:56:31.744Z,10.50
2022-12-06T08:58:59.857Z,11.35
2022-12-06T09:01:35.763Z,11.20
2022-12-06T09:04:08.599Z,13.07
2022-12-06T09:06:39.913Z,11.40
2022-12-06T09:09:08.533Z,12.27
2022-12-06T09:11:36.463Z,12.05
2022-12-06T09:14:05.268Z,14.30
2022-12-06T09:16:33.076Z,13.40
2022-12-06T09:19:01.316Z,13.85
2022-12-06T09:21:33.064Z,13.32
2022-12-06T09:24:01.743Z,14.80
2022-12-06T09:26:29.803Z,12.65
2022-12-06T09:28:58.264Z,16.38
2022-12-06T09:31:26.977Z,16.50
2022-12-06T09:33:54.832Z,13.43
2022-12-06T09:36:25.775Z,11.82
2022-12-06T09:38:59.312Z,11.82
2022-12-06T09:42:10.365Z,12.30
2022-12-06T09:44:56.097Z,10.40
2022-12-06T09:50:09.876Z,10.57
2022-12-06T09:52:58.876Z,10.13
2022-12-06T09:55:48.851Z,10.27
2022-12-06T09:58:24.797Z,9.20
2022-12-06T10:00:59.714Z,8.75
2022-12-06T10:03:50.840Z,8.63
2022-12-06T10:06:22.491Z,9.63
2022-12-06T10:09:04.418Z,9.07
2022-12-06T10:11:48.752Z,7.60
2022-12-06T10:14:38.694Z,8.00
2022-12-06T10:17:19.838Z,8.02
2022-12-06T10:20:00.787Z,7.57
2022-12-06T10:22:39.000Z,8.50
2022-12-06T10:25:14.253Z,8.05
2022-12-06T10:27:50.858Z,7.65
2022-12-06T10:30:19.081Z,7.70
2022-12-06T10:32:55.330Z,6.65
2022-12-06T10:35:50.424Z,7.43
2022-12-06T10:38:26.135Z,7.20
2022-12-06T10:41:05.839Z,5.90
2022-12-06T10:43:43.460Z,6.32
2022-12-06T10:46:35.623Z,5.80
2022-12-06T10:49:08.885Z,6.57
2022-12-06T10:51:42.866Z,5.45
2022-12-06T10:54:22.814Z,5.32
2022-12-06T10:56:54.769Z,5.47
2022-12-06T10:59:32.909Z,6.13
2022-12-06T11:02:05.499Z,12.15
2022-12-06T11:04:36.893Z,7.22
2022-12-06T11:07:14.977Z,5.70
2022-12-06T11:09:45.892Z,5.10
2022-12-06T11:12:30.773Z,7.75
2022-12-06T11:15:08.928Z,4.95
2022-12-06T11:17:43.333Z,5.63
2022-12-06T11:20:18.333Z,4.50
2022-12-06T11:22:54.563Z,4.20
2022-12-06T11:25:28.163Z,4.95
2022-12-06T11:28:01.995Z,4.80
2022-12-06T11:30:35.803Z,11.30
2022-12-06T11:33:04.979Z,20.60
2022-12-06T11:35:33.185Z,6.30
2022-12-06T11:38:07.067Z,4.88
2022-12-06T11:40:39.081Z,4.82
2022-12-06T11:43:13.278Z,51.30
2022-12-06T11:45:45.361Z,8.20
2022-12-06T11:48:16.995Z,5.32
2022-12-06T11:50:46.057Z,5.28
2022-12-06T11:53:21.127Z,4.55
2022-12-06T11:55:53.106Z,4.75
2022-12-06T11:58:28.495Z,7.72
2022-12-06T12:03:30.469Z,7.30
2022-12-06T12:06:19.823Z,6.78
2022-12-06T12:08:58.486Z,5.97
2022-12-06T12:11:29.310Z,11.45
2022-12-06T12:14:02.633Z,18.83
2022-12-06T12:16:36.614Z,12.13
2022-12-06T12:19:07.671Z,7.15
2022-12-06T12:21:41.301Z,7.35
2022-12-06T12:25:17.502Z,42.15
2022-12-06T12:27:44.769Z,10.35
2022-12-06T12:30:28.391Z,9.30
2022-12-06T12:33:24.965Z,7.43
2022-12-06T12:36:10.013Z,9.85
2022-12-06T12:38:42.141Z,8.77
2022-12-06T12:41:24.892Z,8.50
2022-12-06T12:44:36.057Z,14.30
2022-12-06T12:46:56.637Z,6.88
2022-12-06T12:49:32.420Z,5.22
2022-12-06T12:52:01.756Z,5.78
2022-12-06T12:54:32.567Z,6.63
2022-12-06T12:57:02.803Z,5.93
2022-12-06T12:59:38.328Z,5.53
2022-12-06T13:02:17.608Z,5.70
2022-12-06T13:04:59.893Z,5.57
2022-12-06T13:07:41.602Z,5.72
2022-12-06T13:10:18.684Z,4.68
2022-12-06T13:12:51.221Z,4.82
2022-12-06T13:15:23.399Z,4.07
2022-12-06T13:17:59.625Z,4.25
2022-12-06T13:20:33.296Z,4.80
2022-12-06T13:23:05.093Z,4.28
2022-12-06T13:25:33.406Z,4.57
2022-12-06T13:28:05.729Z,4.63
2022-12-06T13:30:36.926Z,5.43
2022-12-06T13:33:08.729Z,5.40
2022-12-06T13:35:41.210Z,5.03
2022-12-06T13:38:26.818Z,5.75
2022-12-06T13:40:56.016Z,5.72
2022-12-06T13:43:57.311Z,7.57
2022-12-06T13:46:28.413Z,6.15
2022-12-06T13:48:57.465Z,5.95
2022-12-06T13:51:50.760Z,6.25
2022-12-06T13:54:36.296Z,8.50
2022-12-06T13:57:22.369Z,12.75
2022-12-06T13:59:50.420Z,9.40
2022-12-06T14:02:51.030Z,7.10
2022-12-06T14:08:20.809Z,6.63
2022-12-06T14:10:48.749Z,5.65
2022-12-06T14:13:18.785Z,6.53
2022-12-06T14:15:49.539Z,7.68
2022-12-06T14:18:22.955Z,14.13
2022-12-06T14:20:53.921Z,7.72
2022-12-06T14:23:29.731Z,9.90
2022-12-06T14:26:19.867Z,5.70
2022-12-06T14:28:49.658Z,6.50
2022-12-06T14:31:31.681Z,10.10
2022-12-06T14:33:59.540Z,14.80
2022-12-06T14:36:31.121Z,24.48
2022-12-06T14:39:03.474Z,37.55
2022-12-06T14:41:51.969Z,21.77
2022-12-06T14:44:21.210Z,18.38
2022-12-06T14:46:50.779Z,14.90
2022-12-06T14:49:40.025Z,13.50
2022-12-06T14:52:23.079Z,12.10
2022-12-06T14:54:54.284Z,9.32
2022-12-06T14:57:27.845Z,10.70
2022-12-06T15:00:20.801Z,13.48
2022-12-06T15:03:24.117Z,7.07
2022-12-06T15:06:09.209Z,7.28
2022-12-06T15:08:39.659Z,6.00
2022-12-06T15:11:52.767Z,9.48
2022-12-06T15:14:23.398Z,10.10
2022-12-06T15:17:00.269Z,9.55
2022-12-06T15:19:29.191Z,12.07
2022-12-06T15:21:57.198Z,11.77
2022-12-06T15:24:26.468Z,12.50
2022-12-06T15:27:05.152Z,8.55
2022-12-06T15:29:33.310Z,6.90
2022-12-06T15:32:01.156Z,6.50
2022-12-06T15:34:30.775Z,3.90
2022-12-06T15:37:38.335Z,3.63
2022-12-06T15:39:48.775Z,3.72
2022-12-06T15:42:20.813Z,3.88
2022-12-06T15:44:50.227Z,4.40
2022-12-06T15:47:19.657Z,6.13
2022-12-06T15:49:48.891Z,6.35
2022-12-06T15:52:18.325Z,6.85
2022-12-06T15:54:46.573Z,6.38
2022-12-06T15:57:14.825Z,11.57
2022-12-06T15:59:44.031Z,11.13
2022-12-06T16:02:15.806Z,15.85
2022-12-06T16:04:44.343Z,10.43
2022-12-06T16:07:13.515Z,15.32
2022-12-06T16:09:41.370Z,11.88
2022-12-06T16:12:09.224Z,9.50
2022-12-06T16:14:37.493Z,10.13
2022-12-06T16:17:06.734Z,10.40
2022-12-06T16:19:48.338Z,8.57
2022-12-06T16:22:16.315Z,17.27
2022-12-06T16:24:43.145Z,12.30
2022-12-06T16:27:11.311Z,7.32
2022-12-06T16:29:39.130Z,7.80
2022-12-06T16:32:08.642Z,5.88
2022-12-06T16:34:36.962Z,6.75
2022-12-06T16:37:07.977Z,8.02
2022-12-06T16:39:36.436Z,8.20
2022-12-06T16:42:05.015Z,9.07
2022-12-06T16:44:33.848Z,8.57
2022-12-06T16:47:01.700Z,9.48
2022-12-06T16:49:49.154Z,8.43
2022-12-06T16:52:18.533Z,7.45
2022-12-06T16:54:46.537Z,7.05
2022-12-06T16:57:15.828Z,7.35
2022-12-06T16:59:43.719Z,7.47
2022-12-06T17:02:25.460Z,6.25
2022-12-06T17:04:55.970Z,7.55
2022-12-06T17:07:23.815Z,9.95
2022-12-06T17:09:51.651Z,12.40
2022-12-06T17:12:19.846Z,12.15
2022-12-06T17:14:47.733Z,12.52
2022-12-06T17:17:17.456Z,11.48
2022-12-06T17:19:46.672Z,10.60
2022-12-06T17:22:17.322Z,14.43
2022-12-06T17:24:45.842Z,16.30
2022-12-06T17:27:15.441Z,14.57
2022-12-06T17:29:44.328Z,13.07
2022-12-06T17:32:12.605Z,17.25
2022-12-06T17:34:40.549Z,14.65
2022-12-06T17:37:08.423Z,24.15
2022-12-06T17:39:37.979Z,20.73
2022-12-06T17:42:24.249Z,18.88
2022-12-06T17:44:52.961Z,19.25
2022-12-06T17:47:20.984Z,20.77
2022-12-06T17:49:49.459Z,18.02
2022-12-06T17:52:17.895Z,15.70
2022-12-06T17:54:47.189Z,15.82
2022-12-06T17:57:18.652Z,20.90
2022-12-06T17:59:48.895Z,22.25
2022-12-06T18:02:19.508Z,32.58
2022-12-06T18:04:49.027Z,17.38
2022-12-06T18:07:18.307Z,13.55
2022-12-06T18:09:48.178Z,11.85
2022-12-06T18:12:17.776Z,14.15
2022-12-06T18:14:45.855Z,14.23
2022-12-06T18:17:14.347Z,21.88
2022-12-06T18:19:44.138Z,21.73
2022-12-06T18:22:15.455Z,22.35
2022-12-06T18:24:44.779Z,22.75
2022-12-06T18:27:15.374Z,16.77
2022-12-06T18:29:43.750Z,32.53
2022-12-06T18:32:11.629Z,19.15
2022-12-06T18:34:39.556Z,15.57
2022-12-06T18:37:07.942Z,14.82
2022-12-06T18:39:35.745Z,12.60
2022-12-06T18:42:03.870Z,13.68
2022-12-06T18:44:33.123Z,14.10
2022-12-06T18:47:01.518Z,14.63
2022-12-06T18:49:29.277Z,17.35
2022-12-06T18:51:57.162Z,16.95
2022-12-06T18:54:26.705Z,18.40
2022-12-06T18:56:54.510Z,16.08
2022-12-06T18:59:27.474Z,14.45
2022-12-06T19:01:57.530Z,12.27
2022-12-06T19:04:25.808Z,12.75
2022-12-06T19:06:54.307Z,14.60
2022-12-06T19:09:23.649Z,14.82
2022-12-06T19:11:51.509Z,13.95
2022-12-06T19:14:19.517Z,14.93
2022-12-06T19:16:49.155Z,14.15
2022-12-06T19:19:20.494Z,13.00
2022-12-06T19:21:50.271Z,15.75
2022-12-06T19:24:21.505Z,17.38
2022-12-06T19:26:50.021Z,16.63
2022-12-06T19:29:18.043Z,18.52
2022-12-06T19:31:47.089Z,16.45
2022-12-06T19:34:19.182Z,22.75
2022-12-06T19:36:47.616Z,15.75
2022-12-06T19:39:15.762Z,26.75
2022-12-06T19:42:01.471Z,17.90
2022-12-06T19:46:58.708Z,14.88
2022-12-06T19:51:57.505Z,15.40
2022-12-06T19:54:28.394Z,15.48
2022-12-06T19:56:58.010Z,15.75
2022-12-06T19:59:28.395Z,18.83
2022-12-06T20:01:58.170Z,18.08
2022-12-06T20:04:31.072Z,15.70
2022-12-06T20:06:59.333Z,16.88
2022-12-06T20:09:29.784Z,18.23
2022-12-06T20:12:03.266Z,19.42
2022-12-06T20:14:36.319Z,19.25
2022-12-06T20:17:06.278Z,18.67
2022-12-06T20:19:35.648Z,16.95
2022-12-06T20:22:03.849Z,18.73
2022-12-06T20:24:32.492Z,23.98
2022-12-06T20:27:00.641Z,25.58
2022-12-06T20:29:30.448Z,39.50
2022-12-06T20:32:00.172Z,26.08
2022-12-06T20:34:30.209Z,20.73
2022-12-06T20:36:59.447Z,17.13
2022-12-06T20:39:28.553Z,18.52
2022-12-06T20:41:57.149Z,19.08
2022-12-06T20:44:25.039Z,16.63
2022-12-06T20:46:54.623Z,17.67
2022-12-06T20:49:22.528Z,17.80
2022-12-06T20:51:53.179Z,18.02
2022-12-06T20:54:23.863Z,18.73
2022-12-06T20:56:56.458Z,30.83
2022-12-06T20:59:24.601Z,20.20
2022-12-06T21:01:52.558Z,23.77
2022-12-06T21:04:20.305Z,19.42
2022-12-06T21:06:48.944Z,20.85
2022-12-06T21:09:16.812Z,18.70
2022-12-06T21:11:46.589Z,16.95
2022-12-06T21:14:16.594Z,17.95
2022-12-06T21:16:45.177Z,19.75
2022-12-06T21:19:14.430Z,18.63
2022-12-06T21:21:46.618Z,22.00
2022-12-06T21:24:16.765Z,17.17
2022-12-06T21:26:46.659Z,17.83
2022-12-06T21:29:17.319Z,18.20
2022-12-06T21:31:45.747Z,22.42
2022-12-06T21:34:14.867Z,19.85
2022-12-06T21:36:43.154Z,23.08
2022-12-06T21:39:13.063Z,22.20
2022-12-06T21:41:40.836Z,24.63
2022-12-06T21:44:11.279Z,20.17
2022-12-06T21:46:39.343Z,38.33
2022-12-06T21:49:07.592Z,21.15
2022-12-06T21:51:35.423Z,21.55
2022-12-06T21:54:03.664Z,16.65
2022-12-06T21:56:33.998Z,15.07
2022-12-06T21:59:02.761Z,18.60
2022-12-06T22:01:32.950Z,18.10
2022-12-06T22:04:05.052Z,17.00
2022-12-06T22:06:33.897Z,14.98
2022-12-06T22:09:03.614Z,17.02
2022-12-06T22:11:32.801Z,16.25
2022-12-06T22:14:01.432Z,18.73
2022-12-06T22:16:30.648Z,22.58
2022-12-06T22:18:59.984Z,17.15
2022-12-06T22:21:33.282Z,25.55
2022-12-06T22:24:01.549Z,18.05
2022-12-06T22:26:33.725Z,16.58
2022-12-06T22:29:02.192Z,14.85
2022-12-06T22:31:31.677Z,15.88
2022-12-06T22:34:02.661Z,15.18
2022-12-06T22:36:31.305Z,15.43
2022-12-06T22:39:01.633Z,14.80
2022-12-06T22:41:30.369Z,15.43
2022-12-06T22:44:00.367Z,15.75
2022-12-06T22:46:29.600Z,15.95
2022-12-06T22:48:58.648Z,16.95
2022-12-06T22:51:30.738Z,15.68
2022-12-06T22:54:00.578Z,14.88
2022-12-06T22:56:30.211Z,15.35
2022-12-06T22:59:00.525Z,16.23
2022-12-06T23:01:30.915Z,15.43
2022-12-06T23:04:00.544Z,15.07
2022-12-06T23:06:30.274Z,16.48
2022-12-06T23:08:58.674Z,15.55
2022-12-06T23:11:28.567Z,16.35
2022-12-06T23:13:57.944Z,16.05
2022-12-06T23:16:28.268Z,15.75
2022-12-06T23:18:57.463Z,16.02
2022-12-06T23:21:27.061Z,15.57
2022-12-06T23:23:58.868Z,15.80
2022-12-06T23:26:29.040Z,15.98
2022-12-06T23:28:56.862Z,16.17
2022-12-06T23:31:27.604Z,14.98
2022-12-06T23:33:57.736Z,15.82
2022-12-06T23:36:29.073Z,16.88
2022-12-06T23:38:58.425Z,17.52
2022-12-06T23:41:28.382Z,16.63
2022-12-06T23:43:58.265Z,16.52
2022-12-06T23:46:27.741Z,19.83
2022-12-06T23:48:56.294Z,18.38
2022-12-06T23:51:26.213Z,16.48
2022-12-06T23:53:56.958Z,17.08
2022-12-06T23:56:28.106Z,14.98
2022-12-06T23:58:56.718Z,16.48
